Time;durP1;ratioP1;P1;durP2;ratioP2;P2;SDS_P1;SDS_P2;PMS_P1;PMS_P2;Temp;Humidity;BMP_temperature;BMP_pressure;BME280_temperature;BME280_humidity;BME280_pressure;Samples;Min_cycle;Max_cycle;Signal;HPM_P1;HPM_P2
2022/12/15 00:38:44;;;;;;;13.57;4.32;;;16.60;99.90;;;;;;4955871;28;20043;-72
2022/12/15 00:41:14;;;;;;;11.75;4.72;;;16.50;99.90;;;;;;4962277;28;20049;-73
2022/12/15 00:43:42;;;;;;;13.55;5.70;;;16.50;99.90;;;;;;4949806;28;20054;-73
2022/12/15 00:48:55;;;;;;;22.83;5.60;;;16.50;99.90;;;;;;4959749;28;20536;-73
2022/12/15 01:21:49;;;;;;;10.68;4.18;;;16.60;99.90;;;;;;4953080;28;20071;-73
2022/12/15 01:24:17;;;;;;;8.48;3.75;;;16.60;99.90;;;;;;4961928;28;20130;-73
2022/12/15 01:26:44;;;;;;;13.63;5.07;;;16.60;99.90;;;;;;4956865;28;20062;-73
2022/12/15 01:29:12;;;;;;;10.60;4.07;;;16.60;99.90;;;;;;4961658;28;20046;-74
2022/12/15 01:31:40;;;;;;;8.65;5.07;;;16.60;99.90;;;;;;4974643;28;20051;-72
2022/12/15 01:34:08;;;;;;;18.88;4.10;;;16.60;99.90;;;;;;4950238;28;20184;-75
2022/12/15 01:36:35;;;;;;;13.32;4.63;;;16.70;99.90;;;;;;4939679;28;20138;-73
2022/12/15 01:39:03;;;;;;;9.70;4.72;;;16.60;99.90;;;;;;4960178;28;20047;-74
2022/12/15 01:41:30;;;;;;;12.23;5.38;;;16.60;99.90;;;;;;4972423;28;20099;-73
2022/12/15 01:44:20;;;;;;;12.23;4.47;;;16.60;99.90;;;;;;4968851;28;20042;-74
2022/12/15 01:46:50;;;;;;;8.93;3.75;;;16.60;99.90;;;;;;4959295;28;20047;-73
2022/12/15 01:49:27;;;;;;;9.13;3.25;;;16.70;99.90;;;;;;4955624;28;20053;-73
2022/12/15 01:51:59;;;;;;;10.43;4.30;;;16.60;99.90;;;;;;4965907;28;20529;-73
2022/12/15 01:54:45;;;;;;;12.63;4.20;;;16.60;99.90;;;;;;4961242;28;20047;-74
2022/12/15 01:57:23;;;;;;;11.95;5.40;;;16.60;99.90;;;;;;4959278;28;20062;-73
2022/12/15 01:59:54;;;;;;;13.13;4.47;;;16.60;99.90;;;;;;4964173;28;20047;-75
2022/12/15 02:02:27;;;;;;;9.02;4.43;;;16.60;99.90;;;;;;4960107;28;20461;-72
2022/12/15 02:04:57;;;;;;;10.82;3.55;;;16.50;99.90;;;;;;4955915;28;20051;-73
2022/12/15 02:07:25;;;;;;;9.07;3.85;;;16.50;99.90;;;;;;4963580;28;20417;-73
2022/12/15 02:09:56;;;;;;;12.88;4.32;;;16.50;99.90;;;;;;4961145;28;20505;-73
2022/12/15 02:12:54;;;;;;;7.60;2.80;;;16.40;99.90;;;;;;4959988;28;20545;-73
2022/12/15 02:15:37;;;;;;;7.32;2.38;;;16.30;99.90;;;;;;4959002;28;20059;-73
2022/12/15 02:18:19;;;;;;;9.48;3.22;;;16.20;99.90;;;;;;4961549;28;20053;-72
2022/12/15 02:21:03;;;;;;;5.07;2.83;;;16.10;99.90;;;;;;4954986;28;20505;-73
2022/12/15 02:24:01;;;;;;;4.80;2.05;;;16.00;99.90;;;;;;4949145;28;20046;-72
2022/12/15 02:26:50;;;;;;;4.53;2.88;;;15.90;99.90;;;;;;4960968;28;20066;-72
2022/12/15 02:29:59;;;;;;;3.67;1.75;;;15.80;99.90;;;;;;4944094;28;20121;-74
2022/12/15 02:32:42;;;;;;;3.45;2.15;;;15.70;99.90;;;;;;4942047;28;20066;-72
2022/12/15 02:35:25;;;;;;;3.53;1.73;;;15.60;99.90;;;;;;4948726;29;20459;-73
2022/12/15 02:37:52;;;;;;;5.30;2.28;;;15.60;99.90;;;;;;4933191;29;20190;-73
2022/12/15 02:40:20;;;;;;;4.88;1.95;;;15.50;99.90;;;;;;4958161;28;20125;-73
2022/12/15 02:42:52;;;;;;;4.85;1.52;;;15.40;99.90;;;;;;4949370;28;20070;-73
2022/12/15 02:45:39;;;;;;;4.53;1.95;;;15.40;99.90;;;;;;4948903;29;20059;-73
2022/12/15 02:48:16;;;;;;;2.28;1.33;;;15.30;99.90;;;;;;4956336;28;20070;-73
2022/12/15 02:51:10;;;;;;;3.00;1.83;;;15.30;99.90;;;;;;4951094;28;20042;-73
2022/12/15 02:54:15;;;;;;;5.05;1.58;;;15.20;99.90;;;;;;4968006;28;20050;-73
2022/12/15 02:57:04;;;;;;;2.65;1.35;;;15.20;99.90;;;;;;4969466;28;20497;-73
2022/12/15 02:59:37;;;;;;;4.53;1.60;;;15.10;99.90;;;;;;4964608;28;20039;-73
2022/12/15 03:02:07;;;;;;;4.50;1.85;;;15.10;99.90;;;;;;4949596;28;20047;-74
2022/12/15 03:04:35;;;;;;;2.53;1.50;;;15.00;99.90;;;;;;4953756;28;20090;-72
2022/12/15 03:07:07;;;;;;;7.03;2.67;;;15.00;99.90;;;;;;4956954;28;20053;-73
2022/12/15 03:09:35;;;;;;;4.55;2.38;;;15.00;99.90;;;;;;4967772;28;20102;-73
2022/12/15 03:12:02;;;;;;;3.85;1.85;;;15.00;99.90;;;;;;4953655;28;20122;-74
2022/12/15 03:14:30;;;;;;;3.10;1.73;;;14.90;99.90;;;;;;4953995;28;20047;-72
2022/12/15 03:16:57;;;;;;;3.28;1.83;;;14.90;99.90;;;;;;4952044;28;20069;-72
2022/12/15 03:19:24;;;;;;;3.33;1.80;;;14.90;99.90;;;;;;4954252;28;20142;-72
2022/12/15 03:21:52;;;;;;;3.25;1.55;;;14.80;99.90;;;;;;4971445;28;20209;-73
2022/12/15 03:24:20;;;;;;;5.07;1.77;;;14.70;99.90;;;;;;4967764;28;20134;-73
2022/12/15 03:26:48;;;;;;;2.83;1.42;;;14.80;99.90;;;;;;4970439;28;20545;-73
2022/12/15 03:29:16;;;;;;;2.60;1.60;;;14.70;99.90;;;;;;4953602;29;20498;-73
2022/12/15 03:31:44;;;;;;;2.78;1.70;;;14.80;99.90;;;;;;4951723;29;20539;-73
2022/12/15 03:34:12;;;;;;;1.98;1.33;;;14.80;99.90;;;;;;4953248;28;20146;-73
2022/12/15 03:36:39;;;;;;;4.63;1.27;;;14.80;99.90;;;;;;4951340;29;20106;-73
2022/12/15 03:39:07;;;;;;;3.30;1.75;;;14.80;99.90;;;;;;4951639;29;20051;-74
2022/12/15 03:41:34;;;;;;;3.17;1.60;;;14.80;99.90;;;;;;4967148;28;20481;-73
2022/12/15 03:44:02;;;;;;;3.88;1.35;;;14.80;99.90;;;;;;4948482;29;20082;-73
2022/12/15 03:46:29;;;;;;;3.47;1.83;;;14.80;99.90;;;;;;4968338;28;20057;-73
2022/12/15 03:48:57;;;;;;;2.72;1.67;;;14.80;99.90;;;;;;4971748;28;20046;-74
2022/12/15 03:51:24;;;;;;;4.57;1.90;;;14.80;99.90;;;;;;4966839;28;20176;-73
2022/12/15 03:53:53;;;;;;;4.75;2.03;;;14.80;99.90;;;;;;4963701;28;20149;-73
2022/12/15 03:56:20;;;;;;;5.18;2.58;;;14.80;99.90;;;;;;4952589;28;20047;-73
2022/12/15 03:58:48;;;;;;;5.38;1.90;;;14.90;99.90;;;;;;4952736;28;20040;-74
2022/12/15 04:01:30;;;;;;;4.32;1.30;;;14.80;99.90;;;;;;4952712;28;20059;-74
2022/12/15 04:03:59;;;;;;;6.53;1.90;;;14.70;99.90;;;;;;4963714;28;20054;-73
2022/12/15 04:06:28;;;;;;;5.97;2.30;;;14.70;99.90;;;;;;4952639;28;20047;-73
2022/12/15 04:08:55;;;;;;;6.05;1.90;;;14.60;99.90;;;;;;4952555;28;20067;-73
2022/12/15 04:11:23;;;;;;;7.35;1.83;;;14.70;99.90;;;;;;4951947;28;20078;-73
2022/12/15 04:13:50;;;;;;;7.63;2.35;;;14.70;99.90;;;;;;4950706;28;20051;-73
2022/12/15 04:16:18;;;;;;;2.83;1.30;;;14.70;99.90;;;;;;4970273;28;20043;-74
2022/12/15 04:20:07;;;;;;;2.90;1.67;;;14.80;99.90;;;;;;4971029;28;20551;-72
2022/12/15 04:21:34;;;;;;;3.80;2.35;;;14.80;99.90;;;;;;4969433;28;20066;-73
2022/12/15 05:33:11;;;;;;;5.03;2.30;;;15.00;99.90;;;;;;4969113;28;20121;-73
2022/12/15 05:35:39;;;;;;;2.95;1.75;;;15.00;99.90;;;;;;4970187;28;20054;-73
2022/12/15 05:38:06;;;;;;;2.83;1.60;;;15.00;99.90;;;;;;4969973;28;20057;-73
2022/12/15 05:40:34;;;;;;;5.03;2.05;;;15.10;99.90;;;;;;4968385;28;20564;-73
2022/12/15 05:43:02;;;;;;;4.35;1.67;;;15.10;99.90;;;;;;4958655;28;20042;-74
2022/12/15 05:45:29;;;;;;;5.63;3.10;;;15.10;99.90;;;;;;4961151;28;20405;-73
2022/12/15 05:47:57;;;;;;;6.10;2.17;;;15.10;99.90;;;;;;4960418;28;20053;-74
2022/12/15 05:50:24;;;;;;;5.03;2.00;;;15.10;99.90;;;;;;4951372;28;20046;-74
2022/12/15 05:52:52;;;;;;;6.65;2.20;;;15.10;99.90;;;;;;4955582;28;20453;-75
2022/12/15 05:55:19;;;;;;;6.43;2.45;;;15.10;99.90;;;;;;4975480;28;20440;-74
2022/12/15 05:57:51;;;;;;;5.63;2.28;;;15.10;99.90;;;;;;4965905;28;20049;-74
2022/12/15 06:00:20;;;;;;;5.35;2.45;;;15.10;99.90;;;;;;4955021;28;20034;-74
2022/12/15 06:02:47;;;;;;;5.03;2.53;;;15.10;99.90;;;;;;4955631;28;20046;-75
2022/12/15 06:05:15;;;;;;;5.93;2.40;;;15.10;99.90;;;;;;4965692;28;20196;-74
2022/12/15 06:07:42;;;;;;;3.88;2.90;;;15.00;99.90;;;;;;4959037;28;20042;-74
2022/12/15 06:10:10;;;;;;;4.07;2.30;;;15.00;99.90;;;;;;4954168;28;20413;-74
2022/12/15 06:12:38;;;;;;;5.15;2.83;;;15.00;99.90;;;;;;4957103;28;20139;-75
2022/12/15 06:15:06;;;;;;;4.65;3.10;;;15.00;99.90;;;;;;4953336;28;20512;-74
2022/12/15 06:17:33;;;;;;;9.55;3.22;;;15.00;99.90;;;;;;4963240;28;20104;-74
2022/12/15 06:20:01;;;;;;;8.68;3.17;;;15.00;99.90;;;;;;4969633;28;20055;-73
2022/12/15 06:22:29;;;;;;;8.20;3.72;;;15.10;99.90;;;;;;4969217;28;20798;-74
2022/12/15 06:24:56;;;;;;;6.85;3.72;;;15.10;99.90;;;;;;4957848;28;20118;-74
2022/12/15 06:27:24;;;;;;;5.78;2.75;;;15.20;99.90;;;;;;4955037;28;20051;-73
2022/12/15 06:29:51;;;;;;;8.38;3.75;;;15.20;99.90;;;;;;4966286;28;20061;-74
2022/12/15 06:32:20;;;;;;;6.85;3.10;;;15.20;99.90;;;;;;4968284;28;20105;-74
2022/12/15 06:34:48;;;;;;;14.18;3.30;;;15.20;99.90;;;;;;4968618;28;20148;-73
2022/12/15 06:37:16;;;;;;;10.20;3.70;;;15.20;99.90;;;;;;4953321;28;20098;-74
2022/12/15 06:39:43;;;;;;;4.88;2.60;;;15.30;99.90;;;;;;4950591;29;20785;-74
2022/12/15 06:42:11;;;;;;;3.97;2.35;;;15.50;99.90;;;;;;4955300;28;20039;-74
2022/12/15 06:44:38;;;;;;;6.13;2.30;;;15.80;99.90;;;;;;4970148;28;20055;-74
2022/12/15 06:47:06;;;;;;;4.57;2.20;;;16.20;99.90;;;;;;4971221;28;20600;-74
2022/12/15 06:49:34;;;;;;;5.85;2.42;;;16.70;99.90;;;;;;4972123;28;20052;-74
2022/12/15 06:52:01;;;;;;;5.18;2.85;;;17.40;99.90;;;;;;4971978;28;20440;-74
2022/12/15 06:54:29;;;;;;;7.53;2.30;;;18.20;99.90;;;;;;4971545;28;20489;-73
2022/12/15 06:56:56;;;;;;;8.18;2.78;;;18.80;99.90;;;;;;4971824;28;20146;-73
2022/12/15 06:59:24;;;;;;;9.25;3.30;;;19.20;99.90;;;;;;4972973;28;20058;-74
2022/12/15 07:01:52;;;;;;;5.88;2.70;;;19.50;99.90;;;;;;4971672;28;20063;-73
2022/12/15 07:04:19;;;;;;;6.10;3.30;;;19.90;99.90;;;;;;4955182;28;20509;-74
2022/12/15 07:06:48;;;;;;;7.57;2.83;;;20.30;99.90;;;;;;4953608;28;20054;-74
2022/12/15 07:09:16;;;;;;;6.65;3.03;;;20.80;99.90;;;;;;4952627;29;20098;-73
2022/12/15 07:11:45;;;;;;;7.75;3.70;;;20.90;99.90;;;;;;4953045;28;20773;-73
2022/12/15 07:14:12;;;;;;;9.90;4.85;;;21.20;99.90;;;;;;4956518;28;20051;-73
2022/12/15 07:16:40;;;;;;;6.70;2.70;;;21.40;99.90;;;;;;4953400;29;20634;-74
2022/12/15 07:19:11;;;;;;;9.50;2.22;;;21.70;99.90;;;;;;4951923;29;20059;-74
2022/12/15 07:21:40;;;;;;;4.53;2.45;;;22.10;99.90;;;;;;4951639;29;20047;-73
2022/12/15 07:24:10;;;;;;;4.63;2.60;;;22.20;99.90;;;;;;4951954;29;20074;-73
2022/12/15 07:26:39;;;;;;;8.73;3.03;;;22.20;99.90;;;;;;4951874;29;20063;-73
2022/12/15 07:29:06;;;;;;;4.90;3.00;;;22.10;99.90;;;;;;4956793;28;20055;-73
2022/12/15 07:31:34;;;;;;;7.20;2.60;;;21.60;99.90;;;;;;4967371;28;20169;-73
2022/12/15 07:34:01;;;;;;;5.40;2.53;;;20.90;99.90;;;;;;4951911;29;20043;-74
2022/12/15 07:36:29;;;;;;;5.22;2.38;;;20.30;99.90;;;;;;4958674;28;20475;-73
2022/12/15 07:39:01;;;;;;;5.32;3.42;;;19.80;99.90;;;;;;4938969;28;20153;-73
2022/12/15 07:41:28;;;;;;;6.05;2.35;;;19.60;99.90;;;;;;4954457;28;20472;-73
2022/12/15 07:43:57;;;;;;;3.75;2.55;;;19.50;99.90;;;;;;4970534;28;20058;-73
2022/12/15 07:46:26;;;;;;;6.72;2.53;;;19.50;99.90;;;;;;4945026;28;20047;-73
2022/12/15 07:48:54;;;;;;;5.35;2.10;;;19.60;99.90;;;;;;4971403;28;20059;-74
2022/12/15 07:51:22;;;;;;;9.90;2.88;;;19.90;99.90;;;;;;4970537;28;20061;-75
2022/12/15 07:53:50;;;;;;;6.55;3.03;;;20.10;99.90;;;;;;4971735;28;20038;-73
2022/12/15 07:56:19;;;;;;;6.13;2.50;;;20.30;99.90;;;;;;4972288;28;20066;-73
2022/12/15 07:58:46;;;;;;;4.15;2.78;;;20.30;99.90;;;;;;4951178;29;20059;-75
2022/12/15 08:01:14;;;;;;;4.70;1.80;;;20.30;99.90;;;;;;4952843;29;20138;-74
2022/12/15 08:03:42;;;;;;;3.30;2.15;;;20.20;99.90;;;;;;4950695;29;20074;-73
2022/12/15 08:06:12;;;;;;;3.08;1.55;;;20.10;99.90;;;;;;4962685;28;20043;-73
2022/12/15 08:08:40;;;;;;;5.38;2.05;;;20.00;99.90;;;;;;4957812;28;20366;-73
2022/12/15 08:11:11;;;;;;;5.60;1.70;;;20.00;99.90;;;;;;4951257;29;20441;-73
2022/12/15 08:13:39;;;;;;;6.53;1.90;;;20.10;99.90;;;;;;4952091;28;20047;-75
2022/12/15 08:16:28;;;;;;;5.35;2.42;;;20.10;99.90;;;;;;4934865;29;20058;-73
2022/12/15 08:18:58;;;;;;;6.07;2.45;;;20.00;99.90;;;;;;4954496;28;20042;-73
2022/12/15 08:21:26;;;;;;;4.97;1.85;;;19.80;99.90;;;;;;4951573;28;20054;-73
2022/12/15 08:23:53;;;;;;;7.07;1.77;;;19.60;99.90;;;;;;4952443;28;20127;-73
2022/12/15 08:26:22;;;;;;;5.55;2.78;;;19.30;99.90;;;;;;4954622;28;20044;-73
2022/12/15 08:28:53;;;;;;;5.25;3.05;;;19.00;99.90;;;;;;4951975;28;20047;-74
2022/12/15 08:31:22;;;;;;;5.30;2.90;;;18.80;99.90;;;;;;4960159;28;20798;-73
2022/12/15 08:33:50;;;;;;;5.25;2.70;;;18.60;99.90;;;;;;4950589;28;20054;-73
2022/12/15 08:36:19;;;;;;;6.75;1.92;;;18.40;99.90;;;;;;4950710;29;20051;-74
2022/12/15 08:38:47;;;;;;;8.05;2.35;;;18.30;99.90;;;;;;4952295;28;20058;-74
2022/12/15 08:41:21;;;;;;;4.28;2.15;;;18.20;99.90;;;;;;4970244;28;20043;-74
2022/12/15 08:43:50;;;;;;;5.38;2.67;;;18.10;99.90;;;;;;4969692;28;20043;-74
2022/12/15 08:46:26;;;;;;;9.52;3.80;;;18.00;99.90;;;;;;4952316;28;20074;-73
2022/12/15 08:48:55;;;;;;;7.38;3.53;;;17.90;99.90;;;;;;4951982;28;20047;-73
2022/12/15 08:51:24;;;;;;;4.95;2.88;;;17.90;99.90;;;;;;4948947;28;20051;-74
2022/12/15 08:53:53;;;;;;;5.88;3.15;;;17.80;99.90;;;;;;4971124;28;20069;-74
2022/12/15 08:56:22;;;;;;;7.75;3.42;;;17.80;99.90;;;;;;4953052;28;20054;-73
2022/12/15 08:58:57;;;;;;;5.30;3.65;;;17.70;99.90;;;;;;4970728;28;20078;-73
2022/12/15 09:01:26;;;;;;;6.82;3.05;;;17.70;99.90;;;;;;4970387;28;20074;-74
2022/12/15 09:03:55;;;;;;;7.22;2.85;;;17.70;99.90;;;;;;4969666;28;20038;-73
2022/12/15 09:06:26;;;;;;;6.13;2.38;;;17.80;99.90;;;;;;4969233;28;20157;-74
2022/12/15 09:08:55;;;;;;;3.47;1.92;;;18.00;99.90;;;;;;4971155;28;20495;-74
2022/12/15 09:11:24;;;;;;;5.57;2.78;;;18.20;99.90;;;;;;4940714;29;20051;-74
2022/12/15 09:13:52;;;;;;;4.40;2.53;;;18.60;99.90;;;;;;4951349;29;20062;-74
2022/12/15 09:16:21;;;;;;;4.22;2.00;;;18.90;99.90;;;;;;4955000;28;20134;-73
2022/12/15 09:18:54;;;;;;;4.25;1.35;;;19.20;99.90;;;;;;4969413;28;20066;-73
2022/12/15 09:21:25;;;;;;;2.15;1.20;;;19.50;99.90;;;;;;4956919;28;20501;-75
2022/12/15 09:23:54;;;;;;;3.33;1.40;;;19.80;99.90;;;;;;4951511;28;20050;-74
2022/12/15 09:26:23;;;;;;;3.97;2.20;;;20.10;99.90;;;;;;4954479;28;20077;-73
2022/12/15 09:28:51;;;;;;;4.45;1.67;;;20.30;99.90;;;;;;4953207;28;20082;-73
2022/12/15 09:31:27;;;;;;;3.80;1.77;;;20.60;99.90;;;;;;4957987;28;20043;-73
2022/12/15 09:33:57;;;;;;;4.93;1.65;;;20.70;99.90;;;;;;4951198;28;20122;-73
2022/12/15 09:36:25;;;;;;;4.68;1.80;;;20.90;99.90;;;;;;4949677;29;20073;-73
2022/12/15 09:38:53;;;;;;;4.57;2.08;;;21.10;99.90;;;;;;4959219;28;20047;-75
2022/12/15 09:41:26;;;;;;;4.90;2.08;;;21.40;99.90;;;;;;4959686;28;20085;-75
2022/12/15 09:43:54;;;;;;;3.53;1.95;;;21.60;99.90;;;;;;4951673;29;20139;-73
2022/12/15 09:46:52;;;;;;;5.00;1.63;;;21.70;99.90;;;;;;4951233;28;20050;-74
2022/12/15 09:49:43;;;;;;;6.03;1.50;;;21.70;99.90;;;;;;4950136;29;20505;-73
2022/12/15 09:52:15;;;;;;;4.43;1.83;;;21.80;99.90;;;;;;4935423;29;20051;-73
2022/12/15 09:54:43;;;;;;;4.30;2.10;;;21.70;99.90;;;;;;4950250;28;20119;-74
2022/12/15 09:57:19;;;;;;;9.15;1.98;;;21.50;99.90;;;;;;4949112;29;20047;-74
2022/12/15 09:59:56;;;;;;;3.78;1.92;;;21.60;99.90;;;;;;4950765;28;20401;-75
2022/12/15 10:02:44;;;;;;;5.18;1.80;;;21.70;99.90;;;;;;4951156;28;20169;-74
2022/12/15 10:05:15;;;;;;;6.82;2.50;;;21.70;99.90;;;;;;4940994;29;20503;-74
2022/12/15 10:07:47;;;;;;;5.97;1.85;;;21.80;99.90;;;;;;4950854;28;20106;-74
2022/12/15 10:10:26;;;;;;;8.25;2.05;;;21.90;99.90;;;;;;4950683;28;20142;-74
2022/12/15 10:12:59;;;;;;;3.53;1.70;;;21.90;99.90;;;;;;4953973;28;20066;-73
2022/12/15 10:15:44;;;;;;;5.07;2.25;;;21.90;99.90;;;;;;4937850;29;20069;-73
2022/12/15 10:18:25;;;;;;;10.38;1.67;;;21.80;99.90;;;;;;4937327;29;20055;-73
2022/12/15 10:20:54;;;;;;;4.20;2.47;;;21.80;99.90;;;;;;4954543;28;20470;-73
2022/12/15 10:23:24;;;;;;;4.43;1.73;;;21.80;99.90;;;;;;4952911;28;20462;-75
2022/12/15 10:26:16;;;;;;;6.25;2.75;;;21.80;99.90;;;;;;4954662;29;20039;-74
2022/12/15 10:28:44;;;;;;;16.02;8.65;;;21.80;99.90;;;;;;4952854;28;20091;-73
2022/12/15 10:31:24;;;;;;;11.25;6.90;;;21.70;99.90;;;;;;4953349;28;20086;-74
2022/12/15 10:34:10;;;;;;;7.13;2.30;;;21.80;99.90;;;;;;4953100;29;20039;-74
2022/12/15 10:36:43;;;;;;;6.88;2.65;;;21.50;99.90;;;;;;4954494;28;20528;-73
2022/12/15 10:39:10;;;;;;;3.05;1.75;;;21.60;99.90;;;;;;4953185;29;20138;-74
2022/12/15 10:41:40;;;;;;;5.30;2.20;;;21.70;99.90;;;;;;4955578;28;20051;-74
2022/12/15 10:44:24;;;;;;;6.20;2.03;;;21.70;99.90;;;;;;4956263;28;20478;-74
2022/12/15 10:46:55;;;;;;;4.78;1.67;;;21.80;99.90;;;;;;4952761;29;20150;-77
2022/12/15 10:49:24;;;;;;;12.95;3.03;;;21.90;99.90;;;;;;4952597;29;20387;-78
2022/12/15 10:51:58;;;;;;;5.75;2.97;;;21.80;99.90;;;;;;4939241;28;20050;-76
2022/12/15 10:54:30;;;;;;;5.25;2.28;;;21.80;99.90;;;;;;4953929;28;20062;-77
2022/12/15 10:57:02;;;;;;;8.68;2.78;;;21.70;99.90;;;;;;4954202;28;20051;-76
2022/12/15 10:59:35;;;;;;;11.25;3.03;;;21.80;99.90;;;;;;4956780;28;20130;-76
2022/12/15 11:02:22;;;;;;;6.45;2.70;;;21.70;99.90;;;;;;4972705;28;20067;-73
2022/12/15 11:05:08;;;;;;;6.03;3.15;;;21.60;99.90;;;;;;4971749;28;20136;-74
2022/12/15 11:07:43;;;;;;;5.63;2.72;;;21.60;99.90;;;;;;4955711;28;20039;-73
2022/12/15 11:12:50;;;;;;;5.80;2.92;;;21.40;99.90;;;;;;4956122;28;20442;-73
2022/12/15 11:13:17;;;;;;;4.45;2.47;;;21.40;99.90;;;;;;4969769;28;20117;-72
2022/12/15 11:15:52;;;;;;;7.35;2.97;;;21.30;99.90;;;;;;4972812;28;20046;-74
2022/12/15 11:18:38;;;;;;;24.38;5.50;;;21.20;99.90;;;;;;4971783;28;20070;-75
2022/12/15 11:21:26;;;;;;;11.48;2.88;;;21.20;99.90;;;;;;4973001;28;20154;-75
2022/12/15 11:24:09;;;;;;;3.03;2.03;;;21.10;99.90;;;;;;4969844;28;20081;-73
2022/12/15 11:26:51;;;;;;;3.83;2.08;;;21.00;99.90;;;;;;4972632;28;20094;-73
2022/12/15 11:29:25;;;;;;;5.80;2.20;;;20.90;99.90;;;;;;4955347;28;20061;-72
2022/12/15 11:31:54;;;;;;;5.15;1.95;;;20.80;99.90;;;;;;4953312;28;20069;-74
2022/12/15 11:34:23;;;;;;;3.80;2.15;;;20.80;99.90;;;;;;4952297;29;20051;-74
2022/12/15 11:37:12;;;;;;;6.78;3.10;;;20.70;99.90;;;;;;4953347;28;20047;-74
2022/12/15 11:39:57;;;;;;;6.07;3.00;;;20.70;99.90;;;;;;4952731;28;20043;-73
2022/12/15 11:43:11;;;;;;;8.18;3.55;;;20.60;99.90;;;;;;4955067;28;20048;-73
2022/12/15 11:45:57;;;;;;;13.40;3.10;;;20.60;99.90;;;;;;4952979;29;20047;-73
2022/12/15 11:48:42;;;;;;;8.48;2.45;;;20.60;99.90;;;;;;4951970;29;20055;-74
2022/12/15 11:51:41;;;;;;;6.65;3.35;;;20.70;99.90;;;;;;4953203;28;20054;-73
2022/12/15 11:54:41;;;;;;;3.85;2.42;;;20.80;99.90;;;;;;4935517;29;20061;-75
2022/12/15 11:57:14;;;;;;;9.45;3.42;;;20.80;99.90;;;;;;4949222;29;20051;-73
2022/12/15 11:59:59;;;;;;;8.02;4.68;;;20.80;99.90;;;;;;4952448;28;20054;-73
2022/12/15 12:02:46;;;;;;;10.32;4.13;;;20.80;99.90;;;;;;4955910;28;20047;-73
2022/12/15 12:05:22;;;;;;;6.93;2.45;;;20.70;99.90;;;;;;4953151;28;20048;-73
2022/12/15 12:08:04;;;;;;;8.98;4.00;;;20.50;99.90;;;;;;4935760;29;20057;-73
2022/12/15 12:10:53;;;;;;;4.68;3.28;;;20.50;99.90;;;;;;4935527;29;20125;-75
2022/12/15 12:13:23;;;;;;;10.05;4.57;;;20.20;99.90;;;;;;4958015;28;20089;-75
2022/12/15 12:16:00;;;;;;;8.55;2.83;;;20.10;99.90;;;;;;4952696;28;20066;-73
2022/12/15 12:18:39;;;;;;;5.03;3.55;;;20.10;99.90;;;;;;4919684;29;20102;-75
2022/12/15 12:21:12;;;;;;;7.50;3.50;;;19.90;99.90;;;;;;4951393;29;20110;-73
2022/12/15 12:23:52;;;;;;;9.05;4.40;;;19.90;99.90;;;;;;4955288;28;20458;-74
2022/12/15 12:26:45;;;;;;;8.10;4.07;;;19.90;99.90;;;;;;4951312;29;20102;-73
2022/12/15 12:29:38;;;;;;;8.35;3.90;;;19.80;99.90;;;;;;4935549;29;20110;-73
2022/12/15 12:32:11;;;;;;;9.43;3.63;;;19.80;99.90;;;;;;4945717;28;20047;-73
2022/12/15 12:35:07;;;;;;;6.07;3.05;;;19.70;99.90;;;;;;4918282;29;20055;-73
2022/12/15 12:37:42;;;;;;;6.93;3.40;;;19.90;99.90;;;;;;4951761;28;20138;-73
2022/12/15 12:40:27;;;;;;;10.60;3.38;;;19.90;99.90;;;;;;4951008;29;20401;-74
2022/12/15 12:42:56;;;;;;;8.48;3.15;;;20.00;99.90;;;;;;4953603;28;20078;-73
2022/12/15 12:45:32;;;;;;;7.40;2.95;;;19.80;99.90;;;;;;4934574;29;20117;-73
2022/12/15 12:48:07;;;;;;;6.30;2.47;;;19.70;99.90;;;;;;4950985;29;20041;-73
2022/12/15 12:50:35;;;;;;;13.63;3.05;;;19.60;99.90;;;;;;4954276;28;20039;-73
2022/12/15 12:53:03;;;;;;;8.77;2.85;;;19.50;99.90;;;;;;4953651;28;20043;-73
2022/12/15 12:55:41;;;;;;;5.28;2.97;;;19.40;99.90;;;;;;4950372;29;20051;-75
2022/12/15 12:58:31;;;;;;;8.15;3.28;;;19.20;99.90;;;;;;4950683;29;20414;-73
2022/12/15 13:01:13;;;;;;;4.20;2.25;;;19.10;99.90;;;;;;4969163;28;20140;-73
2022/12/15 13:03:42;;;;;;;5.97;2.72;;;19.10;99.90;;;;;;4954340;28;20089;-74
2022/12/15 13:06:40;;;;;;;7.95;4.47;;;19.00;99.90;;;;;;4949752;29;20051;-73
2022/12/15 13:09:37;;;;;;;10.20;2.95;;;18.90;99.90;;;;;;4934526;29;20074;-73
2022/12/15 13:12:25;;;;;;;9.40;3.92;;;18.90;99.90;;;;;;4948449;28;20504;-72
2022/12/15 13:15:28;;;;;;;6.50;4.10;;;18.90;99.90;;;;;;4951427;28;20047;-73
2022/12/15 13:18:10;;;;;;;6.55;2.88;;;18.70;99.90;;;;;;4951352;29;20039;-73
2022/12/15 13:20:39;;;;;;;4.00;2.00;;;18.70;99.90;;;;;;4949619;29;20047;-74
2022/12/15 13:23:17;;;;;;;3.70;2.10;;;18.60;99.90;;;;;;4955695;28;20051;-73
2022/12/15 13:25:57;;;;;;;5.57;2.30;;;18.50;99.90;;;;;;4932601;29;20446;-73
2022/12/15 13:28:46;;;;;;;5.93;2.55;;;18.40;99.90;;;;;;4949892;28;20785;-72
2022/12/15 13:31:22;;;;;;;4.50;2.53;;;18.40;99.90;;;;;;4933880;29;20066;-72
2022/12/15 13:33:51;;;;;;;3.95;2.03;;;18.20;99.90;;;;;;4932770;29;20047;-73
2022/12/15 13:36:40;;;;;;;8.75;2.08;;;18.00;99.90;;;;;;4966579;28;20536;-73
2022/12/15 13:39:13;;;;;;;4.57;2.40;;;17.90;99.90;;;;;;4969008;28;20046;-76
2022/12/15 13:42:03;;;;;;;8.68;5.00;;;17.80;99.90;;;;;;4968765;28;20400;-73
2022/12/15 13:44:56;;;;;;;7.43;4.43;;;17.90;99.90;;;;;;4956649;28;20047;-73
2022/12/15 13:47:27;;;;;;;7.10;3.75;;;17.90;99.90;;;;;;4949045;29;20445;-73
2022/12/15 13:50:00;;;;;;;6.47;2.65;;;17.90;99.90;;;;;;4949491;29;20139;-72
2022/12/15 13:52:40;;;;;;;8.55;3.28;;;17.80;99.90;;;;;;4934296;29;20086;-72
2022/12/15 13:55:36;;;;;;;3.58;2.03;;;17.70;99.90;;;;;;4961822;28;20051;-73
2022/12/15 13:58:17;;;;;;;18.85;2.75;;;17.70;99.90;;;;;;4950474;28;20446;-73
2022/12/15 14:00:51;;;;;;;3.70;2.20;;;17.70;99.90;;;;;;4950402;28;20063;-75
2022/12/15 14:03:19;;;;;;;4.63;2.20;;;17.70;99.90;;;;;;4948960;29;20066;-73
2022/12/15 14:05:49;;;;;;;5.05;2.25;;;17.70;99.90;;;;;;4961422;28;20054;-72
2022/12/15 14:08:17;;;;;;;6.53;3.63;;;17.70;99.90;;;;;;4950598;28;20050;-73
2022/12/15 14:10:52;;;;;;;8.27;4.18;;;17.70;99.90;;;;;;4951364;28;20086;-73
2022/12/15 14:13:34;;;;;;;9.82;3.78;;;17.60;99.90;;;;;;4918092;29;20127;-73
2022/12/15 14:16:04;;;;;;;3.17;2.33;;;17.60;99.90;;;;;;4958343;28;20057;-74
2022/12/15 14:18:34;;;;;;;6.53;2.70;;;17.40;99.90;;;;;;4968653;28;20485;-74
2022/12/15 14:21:06;;;;;;;7.88;3.00;;;17.40;99.90;;;;;;4968528;28;20069;-74
2022/12/15 14:23:44;;;;;;;5.40;2.45;;;17.30;99.90;;;;;;4967564;28;20062;-73
2022/12/15 14:26:29;;;;;;;4.68;2.42;;;17.30;99.90;;;;;;4961830;28;20053;-74
2022/12/15 14:29:04;;;;;;;5.80;2.40;;;17.30;99.90;;;;;;4968756;28;20486;-73
2022/12/15 14:31:32;;;;;;;6.13;3.17;;;17.30;99.90;;;;;;4968323;28;20110;-73
2022/12/15 14:34:10;;;;;;;5.22;3.15;;;17.30;99.90;;;;;;4963894;28;20142;-74
2022/12/15 14:36:40;;;;;;;9.45;3.30;;;17.20;99.90;;;;;;4962119;28;20043;-73
2022/12/15 14:39:31;;;;;;;5.88;2.03;;;17.20;99.90;;;;;;4936443;28;20059;-74
2022/12/15 14:42:00;;;;;;;7.63;3.13;;;17.10;99.90;;;;;;4968727;28;20462;-72
2022/12/15 14:44:37;;;;;;;6.82;3.30;;;17.10;99.90;;;;;;4943783;29;20062;-72
2022/12/15 14:47:15;;;;;;;8.43;4.05;;;17.00;99.90;;;;;;4949922;28;20038;-72
2022/12/15 14:49:44;;;;;;;5.25;3.03;;;16.90;99.90;;;;;;4965130;28;20159;-72
2022/12/15 14:52:29;;;;;;;6.40;3.60;;;16.60;99.90;;;;;;4968431;28;20051;-73
2022/12/15 14:55:03;;;;;;;7.60;5.80;;;16.50;99.90;;;;;;4958126;28;20047;-72
2022/12/15 14:57:43;;;;;;;15.00;7.97;;;16.40;99.90;;;;;;4950536;28;20043;-72
2022/12/15 15:00:33;;;;;;;11.27;7.68;;;16.30;99.90;;;;;;4953975;28;20043;-73
2022/12/15 15:03:13;;;;;;;12.50;6.75;;;16.30;99.90;;;;;;4952389;29;20047;-73
2022/12/15 15:05:57;;;;;;;7.28;5.97;;;16.30;99.90;;;;;;4967475;28;20053;-73
2022/12/15 15:08:35;;;;;;;5.90;4.40;;;16.20;99.90;;;;;;4955946;28;20046;-72
2022/12/15 15:11:28;;;;;;;7.22;3.00;;;16.20;99.90;;;;;;4955410;28;20054;-73
2022/12/15 15:14:20;;;;;;;4.25;3.08;;;16.10;99.90;;;;;;4972567;28;20657;-74
2022/12/15 15:16:58;;;;;;;7.68;3.20;;;16.10;99.90;;;;;;4948258;28;20070;-72
2022/12/15 15:19:26;;;;;;;6.47;3.67;;;16.00;99.90;;;;;;4971393;28;20055;-73
2022/12/15 15:21:53;;;;;;;5.85;3.92;;;16.00;99.90;;;;;;4970892;28;20047;-73
2022/12/15 15:24:30;;;;;;;9.95;5.47;;;15.90;99.90;;;;;;4973099;28;20051;-73
2022/12/15 15:27:26;;;;;;;7.80;4.05;;;15.90;99.90;;;;;;4957331;28;20087;-72
2022/12/15 15:30:17;;;;;;;10.88;5.18;;;15.90;99.90;;;;;;4955981;28;20072;-72
2022/12/15 15:33:03;;;;;;;14.48;5.55;;;15.70;99.90;;;;;;4955484;28;20145;-73
2022/12/15 15:35:32;;;;;;;10.65;4.28;;;15.70;99.90;;;;;;4970878;28;20058;-72
2022/12/15 15:38:23;;;;;;;10.38;5.03;;;15.70;99.90;;;;;;4960727;28;20075;-71
2022/12/15 15:40:56;;;;;;;18.25;5.95;;;15.70;99.90;;;;;;4971110;28;20481;-72
2022/12/15 15:43:26;;;;;;;12.48;5.32;;;15.70;99.90;;;;;;4971059;28;20057;-72